Time;durP1;ratioP1;P1;durP2;ratioP2;P2;SDS_P1;SDS_P2;PMS_P1;PMS_P2;Temp;Humidity;BMP_temperature;BMP_pressure;BME280_temperature;BME280_humidity;BME280_pressure;Samples;Min_cycle;Max_cycle;Signal;HPM_P1;HPM_P2
2023/10/24 00:01:32;;;;;;;25.30;20.02;;;10.90;99.90;;;;;;4966090;28;20042;-49
2023/10/24 00:03:57;;;;;;;28.17;19.85;;;10.80;99.90;;;;;;4959660;28;20507;-47
2023/10/24 00:06:23;;;;;;;28.92;18.42;;;10.80;99.90;;;;;;4959012;28;20048;-46
2023/10/24 00:08:49;;;;;;;29.23;20.98;;;10.80;99.90;;;;;;4964232;28;20150;-46
2023/10/24 00:11:14;;;;;;;25.38;20.33;;;10.80;99.90;;;;;;4961580;28;20039;-46
2023/10/24 00:13:40;;;;;;;24.75;20.38;;;10.80;99.90;;;;;;4961579;28;20097;-48
2023/10/24 00:16:06;;;;;;;28.58;20.17;;;10.80;99.90;;;;;;4965067;28;20223;-46
2023/10/24 00:18:31;;;;;;;23.25;18.15;;;10.80;99.90;;;;;;4963186;28;20049;-46
2023/10/24 00:20:58;;;;;;;25.98;20.50;;;10.80;99.90;;;;;;4963951;28;20063;-46
2023/10/24 00:23:24;;;;;;;24.75;20.38;;;10.80;99.90;;;;;;4959571;28;20574;-45
2023/10/24 00:25:49;;;;;;;25.15;20.30;;;10.80;99.90;;;;;;4973300;28;20133;-47
2023/10/24 00:28:15;;;;;;;30.05;21.67;;;10.90;99.90;;;;;;4971803;28;20047;-49
2023/10/24 00:30:41;;;;;;;23.13;17.92;;;10.80;99.90;;;;;;4992953;23;20050;-46
2023/10/24 00:33:06;;;;;;;26.52;20.27;;;10.80;99.90;;;;;;4986414;28;20052;-45
2023/10/24 00:35:33;;;;;;;28.88;19.90;;;10.80;99.90;;;;;;4994029;28;20055;-48
2023/10/24 00:37:58;;;;;;;18.25;15.48;;;10.90;99.90;;;;;;4994074;28;20042;-45
2023/10/24 00:40:24;;;;;;;25.90;19.88;;;10.80;99.90;;;;;;5003880;28;20117;-45
2023/10/24 00:42:51;;;;;;;17.77;14.90;;;10.90;99.90;;;;;;4978858;28;20069;-46
2023/10/24 00:45:17;;;;;;;27.93;20.00;;;10.80;99.90;;;;;;4971493;28;20042;-48
2023/10/24 00:47:44;;;;;;;25.90;17.73;;;10.90;99.90;;;;;;4993913;28;20050;-48
2023/10/24 00:50:10;;;;;;;25.13;19.05;;;10.90;99.90;;;;;;4993458;28;20053;-45
2023/10/24 00:52:37;;;;;;;25.10;19.20;;;10.90;99.90;;;;;;5000755;28;20045;-48
2023/10/24 00:55:05;;;;;;;24.92;20.17;;;10.80;99.90;;;;;;4992748;28;20049;-46
2023/10/24 00:57:31;;;;;;;24.15;19.17;;;10.90;99.90;;;;;;4997724;28;20059;-45
2023/10/24 00:59:57;;;;;;;25.70;19.58;;;10.90;99.90;;;;;;4999855;28;20421;-47
2023/10/24 01:02:23;;;;;;;24.95;19.23;;;10.90;99.90;;;;;;4989604;28;20062;-44
2023/10/24 01:04:53;;;;;;;23.33;18.98;;;10.90;99.90;;;;;;4965539;28;20084;-46
2023/10/24 01:07:19;;;;;;;20.13;16.25;;;10.90;99.90;;;;;;4997959;28;20113;-44
2023/10/24 01:09:44;;;;;;;21.58;18.60;;;10.90;99.90;;;;;;4995435;28;20536;-44
2023/10/24 01:12:10;;;;;;;27.55;20.38;;;10.90;99.90;;;;;;4968457;28;20042;-47
2023/10/24 01:14:36;;;;;;;23.35;19.55;;;10.90;99.90;;;;;;4988453;28;20046;-46
2023/10/24 01:17:12;;;;;;;23.02;18.00;;;10.90;99.90;;;;;;4989433;28;20085;-45
2023/10/24 01:19:38;;;;;;;24.00;18.88;;;10.90;99.90;;;;;;4985135;28;20144;-46
2023/10/24 01:22:04;;;;;;;24.95;18.33;;;10.90;99.90;;;;;;4988895;28;20042;-46
2023/10/24 01:24:29;;;;;;;25.40;19.15;;;10.90;99.90;;;;;;4994876;28;20430;-45
2023/10/24 01:26:56;;;;;;;26.15;19.83;;;10.90;99.90;;;;;;4983626;28;20155;-47
2023/10/24 01:29:23;;;;;;;26.05;19.95;;;11.00;99.90;;;;;;4999125;28;20121;-47
2023/10/24 01:31:48;;;;;;;23.88;18.65;;;10.90;99.90;;;;;;4983803;28;20502;-44
2023/10/24 01:34:14;;;;;;;23.65;18.42;;;11.00;99.90;;;;;;4994678;28;20078;-45
2023/10/24 01:36:39;;;;;;;23.75;18.42;;;11.00;99.90;;;;;;4999206;28;20117;-46
2023/10/24 01:39:07;;;;;;;22.67;15.70;;;11.00;99.90;;;;;;4974794;28;20073;-48
2023/10/24 01:41:32;;;;;;;24.73;19.10;;;11.00;99.90;;;;;;4998236;28;20386;-48
2023/10/24 01:43:58;;;;;;;24.13;18.88;;;11.00;99.90;;;;;;4990740;28;20125;-49
2023/10/24 01:46:23;;;;;;;26.55;18.85;;;11.00;99.90;;;;;;4989276;28;20046;-45
2023/10/24 01:48:49;;;;;;;25.95;20.02;;;11.00;99.90;;;;;;4983820;28;20042;-44
2023/10/24 01:51:15;;;;;;;23.98;18.17;;;11.00;99.90;;;;;;4986378;28;20458;-48
2023/10/24 01:53:40;;;;;;;18.75;15.05;;;11.00;99.90;;;;;;4990123;28;20058;-45
2023/10/24 01:56:06;;;;;;;20.73;15.68;;;11.00;99.90;;;;;;4990557;28;20040;-45
2023/10/24 01:58:34;;;;;;;20.83;17.17;;;11.00;99.90;;;;;;4990747;28;20038;-46
2023/10/24 02:01:00;;;;;;;18.20;14.20;;;11.10;99.90;;;;;;4990197;28;20070;-47
2023/10/24 02:03:25;;;;;;;25.58;18.63;;;11.10;99.90;;;;;;4993726;28;20077;-44
2023/10/24 02:05:51;;;;;;;27.00;18.63;;;11.00;99.90;;;;;;4990253;28;20497;-46
2023/10/24 02:08:17;;;;;;;24.25;18.80;;;11.10;99.90;;;;;;4971227;28;20133;-47
2023/10/24 02:10:42;;;;;;;25.08;19.30;;;11.10;99.90;;;;;;4969242;28;20054;-46
2023/10/24 02:13:08;;;;;;;25.15;19.42;;;11.10;99.90;;;;;;4996606;28;20039;-44
2023/10/24 02:15:37;;;;;;;28.40;20.17;;;11.10;99.90;;;;;;4972158;28;20077;-45
2023/10/24 02:18:03;;;;;;;27.48;20.23;;;11.10;99.90;;;;;;4987054;28;20073;-46
2023/10/24 02:20:28;;;;;;;28.38;19.85;;;11.10;99.90;;;;;;4985492;28;20053;-44
2023/10/24 02:22:54;;;;;;;29.73;19.85;;;11.10;99.90;;;;;;4989756;28;20050;-45
2023/10/24 02:25:19;;;;;;;26.65;19.67;;;11.10;99.90;;;;;;4960077;28;20517;-46
2023/10/24 02:27:45;;;;;;;28.77;19.20;;;11.10;99.90;;;;;;4966569;28;20138;-45
2023/10/24 02:30:11;;;;;;;28.17;19.35;;;11.10;99.90;;;;;;4987922;28;20169;-48
2023/10/24 02:32:37;;;;;;;27.33;18.67;;;11.10;99.90;;;;;;5039112;23;20088;-47
2023/10/24 02:35:03;;;;;;;31.88;18.20;;;11.10;99.90;;;;;;5032490;28;20106;-46
2023/10/24 02:37:29;;;;;;;25.25;17.58;;;11.10;99.90;;;;;;5030554;28;20524;-44
2023/10/24 02:39:55;;;;;;;28.20;18.33;;;11.10;99.90;;;;;;5029843;28;20405;-49
2023/10/24 02:42:20;;;;;;;23.38;17.33;;;11.20;99.90;;;;;;5030108;28;20361;-47
2023/10/24 02:44:51;;;;;;;24.95;17.60;;;11.10;99.90;;;;;;5028101;28;20095;-47
2023/10/24 02:47:17;;;;;;;24.63;17.75;;;11.10;99.90;;;;;;5029189;28;20532;-44
2023/10/24 02:49:43;;;;;;;26.38;17.60;;;11.20;99.90;;;;;;5011010;28;20129;-48
2023/10/24 02:52:08;;;;;;;25.75;17.25;;;11.10;99.90;;;;;;5030760;28;20476;-44
2023/10/24 02:54:34;;;;;;;27.10;16.95;;;11.10;99.90;;;;;;5028581;28;20485;-46
2023/10/24 02:56:59;;;;;;;24.45;16.80;;;11.10;99.90;;;;;;5027845;28;20057;-44
2023/10/24 02:59:25;;;;;;;25.38;16.67;;;11.20;99.90;;;;;;5029388;28;20048;-45
2023/10/24 03:01:51;;;;;;;21.48;15.68;;;11.20;99.90;;;;;;5044822;28;20045;-44
2023/10/24 03:04:16;;;;;;;23.60;16.23;;;11.20;99.90;;;;;;5028618;28;20038;-45
2023/10/24 03:06:42;;;;;;;27.05;15.90;;;11.20;99.90;;;;;;5045522;28;20046;-45
2023/10/24 03:09:08;;;;;;;21.23;16.05;;;11.20;99.90;;;;;;5029564;28;20465;-45
2023/10/24 03:11:33;;;;;;;20.88;16.67;;;11.20;99.90;;;;;;5029669;28;20057;-48
2023/10/24 03:13:59;;;;;;;17.02;14.98;;;11.20;99.90;;;;;;5029070;28;20041;-44
2023/10/24 03:16:24;;;;;;;19.45;16.45;;;11.20;99.90;;;;;;5030150;28;20037;-45
2023/10/24 03:18:50;;;;;;;21.35;16.55;;;11.30;99.90;;;;;;5029668;28;20521;-44
2023/10/24 03:21:16;;;;;;;19.90;15.63;;;11.30;99.90;;;;;;5021477;28;20038;-44
2023/10/24 03:23:44;;;;;;;20.38;15.60;;;11.40;99.90;;;;;;5021826;28;20050;-49
2023/10/24 03:26:10;;;;;;;20.05;15.52;;;11.30;99.90;;;;;;5031504;28;20499;-43
2023/10/24 03:28:36;;;;;;;23.17;15.88;;;11.40;99.90;;;;;;5033462;28;20075;-44
2023/10/24 03:31:06;;;;;;;20.20;15.68;;;11.40;99.90;;;;;;5031904;28;20128;-45
2023/10/24 03:33:33;;;;;;;21.27;15.50;;;11.40;99.90;;;;;;5033449;28;20073;-47
2023/10/24 03:35:59;;;;;;;18.98;16.27;;;11.40;99.90;;;;;;5033510;28;20045;-47
2023/10/24 03:38:26;;;;;;;19.92;16.42;;;11.40;99.90;;;;;;5033197;28;20477;-45
2023/10/24 03:40:55;;;;;;;19.03;16.43;;;11.50;99.90;;;;;;5031560;28;20147;-46
2023/10/24 03:43:22;;;;;;;22.80;15.82;;;11.50;99.90;;;;;;5033165;28;20045;-46
2023/10/24 03:45:47;;;;;;;22.17;17.08;;;11.50;99.90;;;;;;5011977;28;20052;-43
2023/10/24 03:48:14;;;;;;;24.48;16.63;;;11.50;99.90;;;;;;5032753;28;20452;-45
2023/10/24 03:50:40;;;;;;;19.17;17.25;;;11.50;99.90;;;;;;5014593;28;20041;-45
2023/10/24 03:53:07;;;;;;;20.60;16.65;;;11.60;99.90;;;;;;5032322;28;20172;-46
2023/10/24 03:55:35;;;;;;;19.75;17.70;;;11.60;99.90;;;;;;5031681;28;20037;-43
2023/10/24 03:58:01;;;;;;;24.33;17.67;;;11.60;99.90;;;;;;5033107;28;20095;-45
2023/10/24 04:00:27;;;;;;;14.93;13.32;;;11.60;99.90;;;;;;5031865;28;20095;-45
2023/10/24 04:02:54;;;;;;;14.40;12.55;;;11.60;99.90;;;;;;5031351;28;20048;-47
2023/10/24 04:05:20;;;;;;;13.93;12.38;;;11.60;99.90;;;;;;5031684;28;20378;-46
2023/10/24 04:07:46;;;;;;;15.38;12.48;;;11.60;99.90;;;;;;5030576;28;20052;-45
2023/10/24 04:10:12;;;;;;;13.15;11.52;;;11.60;99.90;;;;;;5033324;28;20041;-44
2023/10/24 04:12:38;;;;;;;13.68;12.35;;;11.60;99.90;;;;;;5030993;28;20563;-47
2023/10/24 04:15:05;;;;;;;15.73;12.55;;;11.60;99.90;;;;;;5032190;28;20037;-46
2023/10/24 04:17:32;;;;;;;13.75;11.55;;;11.60;99.90;;;;;;5031640;28;20052;-45
2023/10/24 04:19:57;;;;;;;11.73;9.88;;;11.60;99.90;;;;;;5031800;28;20130;-44
2023/10/24 04:22:23;;;;;;;11.70;9.20;;;11.60;99.90;;;;;;5011613;28;20121;-46
2023/10/24 04:24:49;;;;;;;9.98;8.98;;;11.50;99.90;;;;;;5031655;28;20163;-46
2023/10/24 04:27:14;;;;;;;10.25;9.20;;;11.60;99.90;;;;;;5031288;28;20120;-44
2023/10/24 04:29:40;;;;;;;14.88;10.85;;;11.60;99.90;;;;;;5030365;28;20037;-47
2023/10/24 04:32:06;;;;;;;12.70;10.63;;;11.60;99.90;;;;;;5031578;28;20560;-45
2023/10/24 04:34:31;;;;;;;13.32;11.00;;;11.60;99.90;;;;;;5032523;28;20095;-45
2023/10/24 04:36:57;;;;;;;13.57;11.77;;;11.60;99.90;;;;;;5035129;28;20073;-46
2023/10/24 04:39:23;;;;;;;15.55;11.68;;;11.60;99.90;;;;;;5033174;28;20045;-45
2023/10/24 04:41:48;;;;;;;13.45;12.05;;;11.60;99.90;;;;;;5031271;28;20179;-45
2023/10/24 04:44:14;;;;;;;13.05;11.77;;;11.60;99.90;;;;;;5042456;28;20041;-47
2023/10/24 04:46:40;;;;;;;12.88;11.57;;;11.60;99.90;;;;;;5027302;28;20048;-46
2023/10/24 04:49:06;;;;;;;11.73;10.40;;;11.60;99.90;;;;;;5031760;28;20379;-46
2023/10/24 04:51:32;;;;;;;11.40;10.30;;;11.60;99.90;;;;;;5032384;28;20327;-45
2023/10/24 04:53:58;;;;;;;12.13;10.88;;;11.60;99.90;;;;;;5030647;28;20141;-46
2023/10/24 04:56:24;;;;;;;11.30;10.10;;;11.70;99.90;;;;;;5030543;28;20378;-46
2023/10/24 04:58:50;;;;;;;11.27;10.25;;;11.60;99.90;;;;;;5031312;28;20157;-47
2023/10/24 05:01:16;;;;;;;11.82;10.35;;;11.60;99.90;;;;;;5030650;28;20493;-46
2023/10/24 05:03:42;;;;;;;11.30;10.20;;;11.70;99.90;;;;;;5030618;28;20095;-46
2023/10/24 05:06:07;;;;;;;11.25;9.73;;;11.60;99.90;;;;;;5030453;28;20042;-44
2023/10/24 05:08:33;;;;;;;10.55;9.38;;;11.60;99.90;;;;;;5031235;28;20377;-46
2023/10/24 05:10:59;;;;;;;10.27;9.18;;;11.60;99.90;;;;;;5032094;28;20637;-46
2023/10/24 05:13:24;;;;;;;9.50;8.52;;;11.40;99.90;;;;;;5031854;28;20037;-45
2023/10/24 05:15:50;;;;;;;10.75;9.18;;;11.40;99.90;;;;;;5030045;28;20072;-46
2023/10/24 05:18:16;;;;;;;10.60;9.48;;;11.40;99.90;;;;;;5013092;28;21669;-46
2023/10/24 05:20:41;;;;;;;11.63;9.77;;;11.40;99.90;;;;;;5027125;28;20060;-44
2023/10/24 05:23:07;;;;;;;9.95;8.95;;;11.30;99.90;;;;;;5030065;28;20115;-46
2023/10/24 05:25:33;;;;;;;11.45;10.05;;;11.30;99.90;;;;;;5023870;28;20045;-44
2023/10/24 05:27:59;;;;;;;14.63;9.68;;;11.20;99.90;;;;;;5029097;28;20541;-46
2023/10/24 05:30:25;;;;;;;11.23;9.65;;;11.30;99.90;;;;;;5031720;28;20152;-46
2023/10/24 05:32:50;;;;;;;11.95;9.88;;;11.20;99.90;;;;;;5022600;28;20049;-46
2023/10/24 05:35:16;;;;;;;10.68;9.52;;;11.20;99.90;;;;;;5029861;28;20053;-46
2023/10/24 05:37:42;;;;;;;11.57;9.88;;;11.20;99.90;;;;;;5034527;28;20041;-48
2023/10/24 05:40:09;;;;;;;13.88;9.23;;;11.20;99.90;;;;;;5013015;28;20461;-50
2023/10/24 05:42:36;;;;;;;11.00;9.63;;;11.20;99.90;;;;;;5030302;28;20053;-49
2023/10/24 05:45:01;;;;;;;13.93;9.90;;;11.30;99.90;;;;;;5024839;28;20090;-48
2023/10/24 05:47:27;;;;;;;10.07;9.00;;;11.30;99.90;;;;;;5008010;28;20390;-46
2023/10/24 05:49:52;;;;;;;9.20;8.27;;;11.30;99.90;;;;;;5027659;28;20049;-48
2023/10/24 05:52:18;;;;;;;10.15;9.05;;;11.40;99.90;;;;;;5025932;28;20033;-46
2023/10/24 05:54:44;;;;;;;11.05;8.75;;;11.30;99.90;;;;;;5043110;28;20049;-45
2023/10/24 05:57:09;;;;;;;12.50;8.40;;;11.30;99.90;;;;;;5029269;28;21872;-47
2023/10/24 05:59:35;;;;;;;11.00;8.98;;;11.30;99.90;;;;;;5027239;28;20033;-44
2023/10/24 06:02:01;;;;;;;11.23;8.48;;;11.30;99.90;;;;;;5028706;28;20371;-45
2023/10/24 06:04:26;;;;;;;9.13;8.23;;;11.40;99.90;;;;;;5029636;28;20041;-44
2023/10/24 06:06:53;;;;;;;9.38;8.00;;;11.40;99.90;;;;;;5035550;28;20286;-46
2023/10/24 06:09:19;;;;;;;8.70;7.80;;;11.40;99.90;;;;;;5031253;28;20175;-47
2023/10/24 06:11:45;;;;;;;9.45;8.55;;;11.40;99.90;;;;;;5028781;28;20116;-45
2023/10/24 06:14:10;;;;;;;9.15;8.25;;;11.40;99.90;;;;;;5023227;28;20107;-45
2023/10/24 06:16:36;;;;;;;11.23;8.07;;;11.40;99.90;;;;;;5029676;28;20041;-46
2023/10/24 06:19:02;;;;;;;9.57;8.57;;;11.30;99.90;;;;;;5027973;28;20132;-47
2023/10/24 06:21:28;;;;;;;9.98;8.52;;;11.30;99.90;;;;;;5029536;28;20029;-44
2023/10/24 06:23:53;;;;;;;9.60;8.32;;;11.40;99.90;;;;;;5012679;28;20053;-47
2023/10/24 06:26:19;;;;;;;9.82;8.52;;;11.30;99.90;;;;;;5030526;28;20394;-48
2023/10/24 06:28:45;;;;;;;9.98;8.80;;;11.40;99.90;;;;;;5027517;28;20044;-46
2023/10/24 06:31:11;;;;;;;9.27;8.38;;;11.30;99.90;;;;;;5029895;28;20131;-47
2023/10/24 06:33:38;;;;;;;10.48;8.73;;;11.30;99.90;;;;;;5027171;28;20140;-49
2023/10/24 06:36:04;;;;;;;9.70;8.80;;;11.40;99.90;;;;;;5028094;28;20041;-47
2023/10/24 06:38:30;;;;;;;11.15;9.35;;;11.30;99.90;;;;;;5013508;28;20163;-46
2023/10/24 06:40:56;;;;;;;9.70;8.57;;;11.40;99.90;;;;;;5030314;28;20234;-44
2023/10/24 06:43:23;;;;;;;9.27;8.35;;;11.40;99.90;;;;;;5026696;28;20476;-48
2023/10/24 06:45:49;;;;;;;9.10;8.20;;;11.30;99.90;;;;;;5008955;28;20049;-45
2023/10/24 06:48:15;;;;;;;9.85;8.77;;;11.40;99.90;;;;;;5028585;28;20060;-46
2023/10/24 06:50:40;;;;;;;9.48;8.50;;;11.30;99.90;;;;;;5027577;28;20087;-48
2023/10/24 06:53:10;;;;;;;9.80;8.82;;;11.30;99.90;;;;;;5028055;28;20409;-47
2023/10/24 06:55:37;;;;;;;9.73;8.35;;;11.30;99.90;;;;;;5028296;28;20038;-49
2023/10/24 06:58:03;;;;;;;8.95;8.13;;;11.30;99.90;;;;;;5023233;28;20049;-45
2023/10/24 07:00:29;;;;;;;9.15;8.30;;;11.30;99.90;;;;;;5013887;28;20050;-46
2023/10/24 07:02:55;;;;;;;9.25;8.30;;;11.30;99.90;;;;;;5014184;28;20114;-47
2023/10/24 07:05:20;;;;;;;9.55;8.65;;;11.30;99.90;;;;;;5033736;28;20071;-49
2023/10/24 07:07:46;;;;;;;10.38;8.10;;;11.30;99.90;;;;;;5034610;28;20453;-47
2023/10/24 07:12:55;;;;;;;9.55;8.63;;;11.30;99.90;;;;;;5001764;28;20050;-46
2023/10/24 07:15:20;;;;;;;10.52;8.75;;;11.30;99.90;;;;;;4998530;28;20059;-46
2023/10/24 07:17:46;;;;;;;9.48;8.55;;;11.20;99.90;;;;;;5003687;28;20518;-47
2023/10/24 07:20:12;;;;;;;9.85;8.85;;;11.20;99.90;;;;;;5009879;28;20046;-47
2023/10/24 07:22:37;;;;;;;9.63;8.73;;;11.20;99.90;;;;;;5004337;28;20052;-46
2023/10/24 07:25:04;;;;;;;9.88;8.98;;;11.30;99.90;;;;;;5006830;28;20041;-44
2023/10/24 07:27:29;;;;;;;11.05;10.02;;;11.20;99.90;;;;;;5009791;28;20056;-45
2023/10/24 07:29:55;;;;;;;11.57;9.70;;;11.30;99.90;;;;;;4991523;28;20030;-45
2023/10/24 07:32:20;;;;;;;11.50;10.15;;;11.30;99.90;;;;;;4989750;28;20482;-45
2023/10/24 07:34:48;;;;;;;10.45;9.40;;;11.30;99.90;;;;;;5012136;28;20057;-46
2023/10/24 07:37:14;;;;;;;;;;;11.30;99.90;;;;;;5007910;28;20078;-46
2023/10/24 07:39:39;;;;;;;11.05;9.20;;;11.30;99.90;;;;;;5005112;28;19963;-45
2023/10/24 07:42:05;;;;;;;12.85;9.68;;;11.40;99.90;;;;;;5011710;28;20081;-45
2023/10/24 07:44:30;;;;;;;11.00;9.75;;;11.30;99.90;;;;;;5014444;28;20096;-46
2023/10/24 07:46:56;;;;;;;10.98;9.88;;;11.30;99.90;;;;;;4999253;28;20129;-50
2023/10/24 07:49:22;;;;;;;11.20;9.35;;;11.40;99.90;;;;;;5009639;28;20050;-46
2023/10/24 07:51:47;;;;;;;12.00;9.98;;;11.30;99.90;;;;;;5008586;28;20133;-46
2023/10/24 07:54:13;;;;;;;13.23;10.13;;;11.40;99.90;;;;;;5010535;28;20114;-47
2023/10/24 07:56:40;;;;;;;13.05;10.63;;;11.30;99.90;;;;;;5009513;28;20045;-47
2023/10/24 07:59:07;;;;;;;11.93;10.37;;;11.40;99.90;;;;;;4995267;28;20121;-50
2023/10/24 08:01:36;;;;;;;12.20;10.00;;;11.40;99.90;;;;;;4995044;28;20053;-46
2023/10/24 08:04:02;;;;;;;11.48;10.27;;;11.40;99.90;;;;;;5004096;28;20448;-46
2023/10/24 08:06:28;;;;;;;12.43;10.48;;;11.40;99.90;;;;;;5012953;28;20355;-46
2023/10/24 08:08:53;;;;;;;12.88;10.00;;;11.40;99.90;;;;;;4978861;28;20050;-49
2023/10/24 08:11:19;;;;;;;12.75;9.95;;;11.40;99.90;;;;;;4994191;28;20430;-46
2023/10/24 08:13:45;;;;;;;11.45;9.73;;;11.40;99.90;;;;;;4995840;28;20038;-45
2023/10/24 08:16:10;;;;;;;11.35;10.25;;;11.40;99.90;;;;;;4997574;28;20057;-46
2023/10/24 08:18:37;;;;;;;11.27;10.00;;;11.40;99.90;;;;;;5009918;28;20129;-46
2023/10/24 08:21:03;;;;;;;10.30;9.20;;;11.40;99.90;;;;;;4994593;28;20042;-46
2023/10/24 08:23:29;;;;;;;10.40;9.40;;;11.40;99.90;;;;;;5005165;28;20257;-46
2023/10/24 08:25:56;;;;;;;11.23;9.63;;;11.50;99.90;;;;;;5000521;28;20179;-45
2023/10/24 08:28:22;;;;;;;11.70;9.35;;;11.50;99.90;;;;;;5001435;28;20069;-48
2023/10/24 08:30:48;;;;;;;9.80;8.80;;;11.50;99.90;;;;;;5004295;28;20448;-46
2023/10/24 08:33:15;;;;;;;10.68;9.68;;;11.50;99.90;;;;;;5011083;28;20037;-46
2023/10/24 08:35:40;;;;;;;13.07;10.38;;;11.50;99.90;;;;;;5007647;28;20050;-47
2023/10/24 08:38:06;;;;;;;12.20;9.82;;;11.60;99.90;;;;;;5000158;28;20030;-47
2023/10/24 08:40:32;;;;;;;12.07;9.35;;;11.60;99.90;;;;;;4981652;28;20133;-46
2023/10/24 08:42:58;;;;;;;11.15;9.85;;;11.60;99.90;;;;;;4993430;28;20108;-47
2023/10/24 08:45:25;;;;;;;9.40;8.60;;;11.60;99.90;;;;;;5002935;28;20077;-47
2023/10/24 08:47:53;;;;;;;9.55;8.65;;;11.60;99.90;;;;;;5003903;28;20104;-48
2023/10/24 08:50:19;;;;;;;10.40;9.40;;;11.60;99.90;;;;;;5001822;28;20062;-44
2023/10/24 08:52:45;;;;;;;10.35;9.38;;;11.70;99.90;;;;;;5005187;28;20045;-45
2023/10/24 08:55:12;;;;;;;9.23;8.07;;;11.70;99.90;;;;;;4986342;28;20038;-45
2023/10/24 08:57:42;;;;;;;9.13;8.23;;;11.70;99.90;;;;;;4997027;28;20042;-46
2023/10/24 09:00:10;;;;;;;8.43;7.63;;;11.70;99.90;;;;;;5005500;28;20099;-47
2023/10/24 09:02:37;;;;;;;8.30;7.10;;;11.70;99.90;;;;;;5002993;28;20049;-47
2023/10/24 09:05:03;;;;;;;7.35;6.75;;;11.70;99.90;;;;;;5005433;28;20113;-48
2023/10/24 09:07:29;;;;;;;7.30;6.60;;;11.70;99.90;;;;;;5013565;28;20049;-49
2023/10/24 09:09:54;;;;;;;7.75;6.60;;;11.70;99.90;;;;;;5013571;28;20402;-48
2023/10/24 09:12:21;;;;;;;7.53;6.82;;;11.70;99.90;;;;;;5012013;28;20137;-48
2023/10/24 09:14:48;;;;;;;6.70;6.10;;;11.70;99.90;;;;;;4996038;28;20092;-48
2023/10/24 09:17:15;;;;;;;5.90;5.40;;;11.70;99.90;;;;;;4993302;28;20049;-47
2023/10/24 09:19:41;;;;;;;6.68;5.95;;;11.80;99.90;;;;;;4993689;28;20282;-48
2023/10/24 09:22:08;;;;;;;6.60;6.00;;;11.80;99.90;;;;;;4992757;28;20049;-49
2023/10/24 09:24:35;;;;;;;6.72;6.13;;;11.80;99.90;;;;;;5009330;28;20080;-46
2023/10/24 09:27:01;;;;;;;6.53;5.95;;;11.80;99.90;;;;;;4990936;28;20402;-46
2023/10/24 09:29:27;;;;;;;5.93;5.43;;;11.90;99.90;;;;;;4993191;28;20058;-50
2023/10/24 09:31:57;;;;;;;5.97;5.40;;;11.90;99.90;;;;;;4992947;28;20046;-49
2023/10/24 09:34:26;;;;;;;5.90;5.40;;;11.90;99.90;;;;;;5005857;28;20069;-46
2023/10/24 09:36:53;;;;;;;6.85;6.15;;;12.00;99.90;;;;;;5009278;28;20048;-47
2023/10/24 09:39:18;;;;;;;7.63;6.90;;;12.00;99.90;;;;;;5012526;28;20133;-48
2023/10/24 09:41:45;;;;;;;7.18;6.47;;;11.90;99.90;;;;;;5012594;28;20120;-47
2023/10/24 09:44:12;;;;;;;7.37;6.67;;;11.90;99.90;;;;;;5011901;28;20041;-47
2023/10/24 09:46:38;;;;;;;7.80;6.40;;;11.90;99.90;;;;;;4999718;28;20418;-47
2023/10/24 09:49:05;;;;;;;6.57;6.05;;;11.90;99.90;;;;;;4998122;28;20115;-46
2023/10/24 09:51:32;;;;;;;8.25;6.10;;;11.90;99.90;;;;;;5002070;28;20089;-46
2023/10/24 09:53:59;;;;;;;7.25;6.18;;;11.90;99.90;;;;;;4982134;28;20054;-49
2023/10/24 09:56:26;;;;;;;6.45;5.85;;;11.90;99.90;;;;;;5004236;28;20390;-47
2023/10/24 09:58:52;;;;;;;6.60;6.00;;;11.90;99.90;;;;;;5000453;28;20046;-49
2023/10/24 10:01:18;;;;;;;6.20;5.70;;;11.90;99.90;;;;;;4999939;28;20079;-46
2023/10/24 10:03:44;;;;;;;6.00;5.43;;;11.80;99.90;;;;;;5003928;28;20037;-47
2023/10/24 10:06:11;;;;;;;6.78;5.95;;;11.90;99.90;;;;;;4986503;28;20042;-45
2023/10/24 10:08:39;;;;;;;6.25;5.75;;;11.90;99.90;;;;;;4989382;28;20069;-49
2023/10/24 10:11:06;;;;;;;6.50;5.90;;;11.90;99.90;;;;;;5004119;28;20042;-48
2023/10/24 10:13:49;;;;;;;6.80;6.15;;;11.90;99.90;;;;;;4996903;28;20092;-46
2023/10/24 10:16:52;;;;;;;7.00;6.30;;;12.00;99.90;;;;;;4984356;28;20143;-47
2023/10/24 10:19:33;;;;;;;9.13;6.63;;;12.00;99.90;;;;;;5007210;28;20350;-47
2023/10/24 10:22:23;;;;;;;7.45;6.70;;;12.10;99.90;;;;;;4998530;28;20078;-47
2023/10/24 10:25:12;;;;;;;8.02;7.28;;;12.30;99.90;;;;;;4994944;28;20053;-48
2023/10/24 10:28:17;;;;;;;8.05;7.30;;;12.30;99.90;;;;;;5009657;28;20541;-45
2023/10/24 10:31:18;;;;;;;8.25;7.50;;;12.40;99.90;;;;;;4992891;28;20497;-47
2023/10/24 10:33:43;;;;;;;7.90;7.20;;;12.50;99.90;;;;;;4966632;28;20049;-47
2023/10/24 10:36:12;;;;;;;9.07;8.13;;;12.60;99.90;;;;;;5014679;28;20574;-45
2023/10/24 10:38:38;;;;;;;10.30;8.50;;;12.70;99.90;;;;;;5009567;28;20058;-45
2023/10/24 10:41:22;;;;;;;9.75;8.82;;;12.80;99.90;;;;;;4997294;28;20049;-46
2023/10/24 10:43:48;;;;;;;9.93;8.93;;;12.80;99.90;;;;;;4978444;28;20761;-47
2023/10/24 10:46:23;;;;;;;10.38;9.45;;;12.80;99.90;;;;;;5001434;28;20041;-45
2023/10/24 10:48:50;;;;;;;10.27;9.23;;;12.80;99.90;;;;;;5007734;28;20046;-50
2023/10/24 10:51:17;;;;;;;9.45;8.65;;;12.90;99.90;;;;;;5000578;28;20050;-48
2023/10/24 10:54:12;;;;;;;10.50;9.40;;;13.00;99.90;;;;;;5016141;28;20046;-47
2023/10/24 10:56:40;;;;;;;11.13;9.93;;;13.20;99.90;;;;;;4988081;28;20095;-46
2023/10/24 10:59:08;;;;;;;10.13;9.23;;;13.20;99.90;;;;;;4997724;28;20034;-46
2023/10/24 11:01:50;;;;;;;10.38;9.38;;;13.20;99.90;;;;;;5010206;28;20128;-47
2023/10/24 11:04:16;;;;;;;10.18;9.27;;;13.20;99.90;;;;;;5012944;28;20104;-46
2023/10/24 11:06:56;;;;;;;10.43;9.40;;;13.20;99.90;;;;;;5013672;28;20480;-46
2023/10/24 11:09:28;;;;;;;9.75;8.95;;;13.30;99.90;;;;;;4996222;28;20050;-47
2023/10/24 11:12:19;;;;;;;10.60;9.52;;;13.30;99.90;;;;;;5004106;28;20061;-47
2023/10/24 11:15:03;;;;;;;9.85;8.95;;;13.40;99.90;;;;;;4998579;28;20064;-48
2023/10/24 11:17:29;;;;;;;10.50;9.40;;;13.60;99.90;;;;;;5003333;28;20046;-49
2023/10/24 11:19:57;;;;;;;10.40;9.50;;;13.60;99.90;;;;;;5001318;28;20057;-46
2023/10/24 11:22:23;;;;;;;;;;;13.70;99.90;;;;;;5013775;28;20113;-45
2023/10/24 11:24:48;;;;;;;9.13;8.32;;;13.70;99.90;;;;;;4994694;28;22204;-48
2023/10/24 11:27:14;;;;;;;10.75;9.60;;;13.70;99.90;;;;;;5007996;28;20053;-47
2023/10/24 11:29:40;;;;;;;9.20;8.32;;;13.80;99.90;;;;;;5014959;28;20053;-47
2023/10/24 11:32:06;;;;;;;10.43;8.75;;;13.80;99.90;;;;;;4998241;28;20053;-49
2023/10/24 11:34:31;;;;;;;9.05;8.07;;;13.70;99.90;;;;;;5005906;28;20042;-49
2023/10/24 11:36:57;;;;;;;8.73;7.95;;;13.60;99.90;;;;;;5004664;28;20041;-48
2023/10/24 11:39:22;;;;;;;9.60;8.32;;;13.60;99.90;;;;;;5000161;28;20133;-48
2023/10/24 11:41:48;;;;;;;9.00;8.13;;;13.50;99.90;;;;;;5006265;28;20062;-48
2023/10/24 11:44:15;;;;;;;8.45;7.65;;;13.60;99.90;;;;;;4999210;28;20044;-46
2023/10/24 11:46:42;;;;;;;9.13;8.20;;;13.60;99.90;;;;;;5003220;28;20038;-49
2023/10/24 11:49:08;;;;;;;8.73;7.75;;;13.60;99.90;;;;;;5003238;28;20508;-47
2023/10/24 11:51:34;;;;;;;9.13;7.95;;;13.60;99.90;;;;;;5004419;28;20100;-47
2023/10/24 11:54:09;;;;;;;8.63;7.93;;;13.70;99.90;;;;;;5016529;28;20046;-45
2023/10/24 11:56:35;;;;;;;8.63;7.93;;;13.70;99.90;;;;;;5003680;28;20092;-49
2023/10/24 11:59:02;;;;;;;8.93;8.13;;;13.70;99.90;;;;;;5006986;28;20046;-47
2023/10/24 12:01:29;;;;;;;8.63;7.82;;;13.70;99.90;;;;;;5000381;28;20043;-47
2023/10/24 12:03:56;;;;;;;9.50;8.23;;;13.70;99.90;;;;;;5004924;28;20097;-46
2023/10/24 12:06:23;;;;;;;9.52;8.13;;;13.70;99.90;;;;;;4998610;28;20049;-47
2023/10/24 12:08:49;;;;;;;9.35;8.38;;;13.70;99.90;;;;;;5003880;28;20030;-47
2023/10/24 12:11:15;;;;;;;9.13;8.32;;;13.60;99.90;;;;;;5004331;28;20056;-47
2023/10/24 12:13:41;;;;;;;9.00;8.20;;;13.60;99.90;;;;;;4991220;28;20485;-47
2023/10/24 12:16:08;;;;;;;9.50;8.60;;;13.50;99.90;;;;;;5007492;28;20449;-47
2023/10/24 12:18:33;;;;;;;9.50;8.65;;;13.50;99.90;;;;;;5009254;28;20041;-47
2023/10/24 12:20:59;;;;;;;9.93;8.68;;;13.50;99.90;;;;;;5006357;28;20029;-46
2023/10/24 12:23:26;;;;;;;10.10;8.60;;;13.50;99.90;;;;;;4992710;28;20042;-46
2023/10/24 12:25:52;;;;;;;9.50;8.60;;;13.50;99.90;;;;;;4995742;28;20045;-46
2023/10/24 12:28:18;;;;;;;9.82;8.55;;;13.50;99.90;;;;;;5011625;28;20460;-46
2023/10/24 12:30:43;;;;;;;8.60;7.65;;;13.50;99.90;;;;;;5011095;28;20050;-46
2023/10/24 12:33:09;;;;;;;8.85;8.05;;;13.60;99.90;;;;;;4986756;28;20100;-46
2023/10/24 12:35:35;;;;;;;8.98;8.18;;;13.60;99.90;;;;;;5006879;28;20037;-47
2023/10/24 12:38:01;;;;;;;9.10;8.20;;;13.60;99.90;;;;;;5005956;28;20046;-46